Time;durP1;ratioP1;P1;durP2;ratioP2;P2;SDS_P1;SDS_P2;PMS_P1;PMS_P2;Temp;Humidity;BMP_temperature;BMP_pressure;BME280_temperature;BME280_humidity;BME280_pressure;Samples;Min_cycle;Max_cycle;Signal;HPM_P1;HPM_P2
2021/09/06 00:00:33;;;;;;;11.07;7.47;;;;;;;13.23;91.25;96776.13;5066987;28;20329;-78
2021/09/06 00:02:58;;;;;;;10.20;7.37;;;;;;;13.23;91.08;96776.13;5080050;28;20028;-78
2021/09/06 00:05:24;;;;;;;16.13;7.70;;;;;;;13.18;91.31;96773.97;5075887;28;20036;-78
2021/09/06 00:07:50;;;;;;;10.83;7.47;;;;;;;13.12;91.47;96767.50;5057950;28;20041;-78
2021/09/06 00:10:36;;;;;;;12.83;7.97;;;;;;;13.10;91.21;96777.41;5074716;28;20504;-78
2021/09/06 00:13:03;;;;;;;9.50;6.90;;;;;;;13.18;91.13;96776.59;5081828;28;20033;-78
2021/09/06 00:15:29;;;;;;;11.60;7.27;;;;;;;13.13;91.41;96773.63;5074261;28;20024;-77
2021/09/06 00:17:55;;;;;;;12.30;7.33;;;;;;;13.14;91.30;96767.34;5075198;28;20033;-78
2021/09/06 00:20:22;;;;;;;11.10;7.03;;;;;;;13.11;91.83;96772.94;5056967;28;20060;-78
2021/09/06 00:22:48;;;;;;;10.33;6.97;;;;;;;13.08;91.72;96773.28;5078720;28;20115;-78
2021/09/06 00:25:14;;;;;;;10.93;7.30;;;;;;;13.10;91.76;96771.28;5080741;28;20325;-78
2021/09/06 00:27:39;;;;;;;10.53;7.33;;;;;;;13.11;91.60;96772.94;5081150;28;20107;-77
2021/09/06 00:30:06;;;;;;;11.63;7.50;;;;;;;13.11;91.29;96770.28;5073408;28;20013;-78
2021/09/06 00:32:32;;;;;;;12.27;7.57;;;;;;;13.11;91.01;96772.94;5075744;28;20032;-78
2021/09/06 00:34:57;;;;;;;9.73;6.80;;;;;;;13.08;90.80;96771.47;5077968;28;20060;-78
2021/09/06 00:37:23;;;;;;;10.63;7.53;;;;;;;13.06;91.39;96769.97;5076831;28;20032;-78
2021/09/06 00:39:50;;;;;;;12.03;7.77;;;;;;;13.02;91.76;96768.66;5076901;28;20021;-78
2021/09/06 00:42:15;;;;;;;11.83;7.77;;;;;;;12.97;91.99;96767.28;5084391;28;20067;-78
2021/09/06 00:44:41;;;;;;;11.23;8.20;;;;;;;12.77;93.75;96767.72;5082859;28;20035;-79
2021/09/06 00:47:07;;;;;;;11.47;7.73;;;;;;;12.68;93.92;96770.34;5059626;28;20047;-78
2021/09/06 00:49:33;;;;;;;27.03;9.13;;;;;;;12.64;94.33;96770.81;5076856;28;20011;-78
2021/09/06 00:51:59;;;;;;;12.03;8.27;;;;;;;12.60;94.43;96767.66;5077781;28;20130;-78
2021/09/06 00:54:26;;;;;;;10.93;7.80;;;;;;;12.53;94.69;96771.09;5060009;28;20100;-78
2021/09/06 00:56:53;;;;;;;11.47;7.87;;;;;;;12.47;94.97;96765.50;5080330;28;20058;-78
2021/09/06 00:59:20;;;;;;;12.53;8.30;;;;;;;12.39;95.24;96769.88;5080369;28;20047;-78
2021/09/06 01:01:46;;;;;;;12.53;8.80;;;;;;;12.34;96.03;96773.00;5079002;28;20127;-77
2021/09/06 01:04:13;;;;;;;11.20;7.30;;;;;;;12.30;96.15;96769.00;5060281;28;20509;-77
2021/09/06 01:06:57;;;;;;;12.03;7.93;;;;;;;12.26;96.03;96765.03;5080823;28;20615;-78
2021/09/06 01:09:47;;;;;;;9.63;7.57;;;;;;;12.22;96.02;96766.34;5070019;28;20063;-78
2021/09/06 01:12:26;;;;;;;12.07;7.90;;;;;;;12.14;96.10;96766.28;5069371;28;20035;-78
2021/09/06 01:14:52;;;;;;;12.00;8.07;;;;;;;12.10;96.30;96765.75;5060794;28;20028;-79
2021/09/06 01:17:19;;;;;;;11.23;7.30;;;;;;;12.09;96.44;96766.75;5076248;28;20047;-78
2021/09/06 01:19:48;;;;;;;11.70;7.27;;;;;;;12.11;95.77;96769.25;5058837;28;20143;-78
2021/09/06 01:22:13;;;;;;;10.73;7.73;;;;;;;12.13;95.74;96770.72;5073456;28;20020;-78
2021/09/06 01:24:53;;;;;;;11.43;7.87;;;;;;;12.14;95.33;96768.91;5060625;28;20029;-78
2021/09/06 01:27:20;;;;;;;11.33;7.10;;;;;;;12.10;96.06;96775.47;5078505;28;20101;-78
2021/09/06 01:29:46;;;;;;;10.20;7.57;;;;;;;12.08;95.81;96774.81;5085786;28;20020;-78
2021/09/06 01:32:14;;;;;;;11.30;8.07;;;;;;;12.10;96.18;96775.47;5053458;28;20058;-78
2021/09/06 01:34:44;;;;;;;12.33;7.63;;;;;;;12.10;96.02;96770.22;5075870;28;20503;-78
2021/09/06 01:37:10;;;;;;;10.53;7.73;;;;;;;12.09;96.05;96779.09;5066156;28;20038;-78
2021/09/06 01:39:41;;;;;;;10.53;7.27;;;;;;;12.06;95.33;96774.97;5065429;28;20063;-78
2021/09/06 01:42:08;;;;;;;15.43;7.53;;;;;;;12.06;95.21;96777.59;5060324;28;22093;-78
2021/09/06 01:44:35;;;;;;;11.10;7.90;;;;;;;12.13;94.98;96778.63;5075656;28;20020;-79
2021/09/06 01:47:02;;;;;;;12.17;7.20;;;;;;;12.24;93.77;96777.56;5054495;28;20106;-78
2021/09/06 01:49:28;;;;;;;10.23;7.43;;;;;;;12.22;93.68;96776.88;5079806;28;20108;-78
2021/09/06 01:51:53;;;;;;;10.93;7.53;;;;;;;12.18;93.78;96773.72;5078219;28;20056;-78
2021/09/06 01:54:19;;;;;;;11.70;7.87;;;;;;;12.19;93.40;96777.19;5078330;28;20035;-78
2021/09/06 01:56:45;;;;;;;12.87;7.83;;;;;;;12.23;93.22;96778.53;5077935;28;20024;-78
2021/09/06 01:59:14;;;;;;;15.57;7.23;;;;;;;12.23;92.75;96779.34;5081285;28;20113;-78
2021/09/06 02:01:39;;;;;;;10.93;7.47;;;;;;;12.22;93.05;96772.44;5076071;28;20033;-78
2021/09/06 02:04:07;;;;;;;10.03;7.13;;;;;;;12.22;92.92;96776.88;5071355;28;20023;-78
2021/09/06 02:06:34;;;;;;;10.17;7.47;;;;;;;12.25;92.91;96776.56;5056867;28;20039;-78
2021/09/06 02:09:03;;;;;;;12.33;7.20;;;;;;;12.24;92.51;96775.75;5080010;28;20036;-78
2021/09/06 02:11:32;;;;;;;11.40;7.33;;;;;;;12.15;93.13;96775.84;5071358;28;20025;-78
2021/09/06 02:14:00;;;;;;;12.83;7.93;;;;;;;12.08;93.87;96769.56;5056378;28;20020;-78
2021/09/06 02:16:27;;;;;;;10.23;7.30;;;;;;;12.03;94.56;96775.28;5059877;28;20545;-77
2021/09/06 02:18:56;;;;;;;12.23;7.63;;;;;;;11.98;94.99;96775.75;5087115;28;20397;-78
2021/09/06 02:21:23;;;;;;;11.87;7.83;;;;;;;11.99;95.25;96768.66;5080182;28;20180;-78
2021/09/06 02:23:53;;;;;;;12.90;8.57;;;;;;;11.99;95.29;96777.41;5050291;28;20453;-78
2021/09/06 02:26:18;;;;;;;11.43;7.97;;;;;;;11.98;95.44;96780.19;5053976;28;20028;-78
2021/09/06 02:28:47;;;;;;;12.10;7.93;;;;;;;11.97;95.42;96773.25;5074352;28;20088;-78
2021/09/06 02:31:13;;;;;;;12.53;8.40;;;;;;;11.96;95.35;96774.25;5056327;28;20033;-78
2021/09/06 02:34:00;;;;;;;11.60;7.63;;;;;;;11.97;95.43;96782.00;5067868;28;20016;-78
2021/09/06 02:36:34;;;;;;;14.27;8.20;;;;;;;11.99;94.93;96780.03;5050652;28;20032;-78
2021/09/06 02:39:01;;;;;;;10.60;7.63;;;;;;;12.03;94.38;96768.19;5061617;28;20051;-77
2021/09/06 02:41:27;;;;;;;10.30;7.70;;;;;;;11.98;93.54;96777.56;5054170;28;20540;-78
2021/09/06 02:43:53;;;;;;;11.13;8.43;;;;;;;12.05;94.06;96772.50;5069441;28;20072;-78
2021/09/06 02:46:18;;;;;;;10.47;6.73;;;;;;;12.03;94.13;96780.53;5059185;28;20036;-78
2021/09/06 02:48:45;;;;;;;11.33;7.87;;;;;;;12.05;94.21;96780.41;5070464;28;20057;-78
2021/09/06 02:51:11;;;;;;;11.53;7.53;;;;;;;12.01;94.16;96780.72;5055130;28;20024;-78
2021/09/06 02:53:36;;;;;;;10.83;7.83;;;;;;;11.97;94.62;96784.66;5068679;28;20062;-78
2021/09/06 02:56:02;;;;;;;11.50;7.27;;;;;;;11.90;95.14;96783.59;5060972;28;20089;-78
2021/09/06 02:58:33;;;;;;;11.00;7.77;;;;;;;11.76;96.48;96781.47;5078300;28;20028;-78
2021/09/06 03:00:59;;;;;;;10.53;7.60;;;;;;;11.65;97.09;96784.38;5079456;28;20123;-77
2021/09/06 03:03:25;;;;;;;13.33;8.27;;;;;;;11.54;98.38;96793.34;5070382;28;20024;-78
2021/09/06 03:05:51;;;;;;;12.40;8.20;;;;;;;11.48;98.73;96791.31;5051474;28;20035;-78
2021/09/06 03:08:18;;;;;;;9.50;7.03;;;;;;;11.52;98.68;96782.94;5060244;28;20029;-78
2021/09/06 03:10:45;;;;;;;11.90;7.93;;;;;;;11.48;98.73;96786.84;5056300;28;20029;-78
2021/09/06 03:13:11;;;;;;;12.30;8.60;;;;;;;11.53;98.91;96781.94;5081233;28;20044;-78
2021/09/06 03:15:40;;;;;;;12.60;9.03;;;;;;;11.51;99.15;96783.94;5084769;28;20041;-78
2021/09/06 03:18:06;;;;;;;12.77;8.87;;;;;;;11.51;99.18;96777.84;5073691;28;20108;-77
2021/09/06 03:20:55;;;;;;;14.43;9.53;;;;;;;11.51;99.27;96778.66;5064637;28;20405;-79
2021/09/06 03:23:21;;;;;;;13.43;9.00;;;;;;;11.49;99.06;96780.59;5064934;28;20027;-78
2021/09/06 03:25:47;;;;;;;12.93;9.43;;;;;;;11.46;99.61;96780.91;5048599;28;20163;-78
2021/09/06 03:28:13;;;;;;;12.87;9.23;;;;;;;11.45;100.00;96784.53;5075989;28;20056;-78
2021/09/06 03:30:42;;;;;;;13.53;9.53;;;;;;;11.48;100.00;96778.94;5078384;28;20033;-78
2021/09/06 03:33:13;;;;;;;12.90;9.13;;;;;;;11.43;99.75;96781.19;5056521;28;20029;-78
2021/09/06 03:35:43;;;;;;;14.43;9.57;;;;;;;11.33;100.00;96786.56;5077455;28;20025;-78
2021/09/06 03:38:13;;;;;;;15.67;10.40;;;;;;;11.26;100.00;96785.50;5072686;28;20021;-78
2021/09/06 03:40:40;;;;;;;10.93;7.87;;;;;;;11.19;100.00;96789.69;5055041;28;20051;-78
2021/09/06 03:43:06;;;;;;;12.63;8.03;;;;;;;11.18;100.00;96787.22;5070975;28;20063;-78
2021/09/06 03:45:35;;;;;;;13.47;8.77;;;;;;;11.14;100.00;96786.69;5071387;28;20032;-78
2021/09/06 03:48:01;;;;;;;16.60;8.77;;;;;;;11.06;100.00;96784.78;5063099;28;20029;-78
2021/09/06 03:50:28;;;;;;;11.73;7.47;;;;;;;10.99;100.00;96786.38;5076782;28;20065;-78
2021/09/06 03:52:54;;;;;;;10.13;8.13;;;;;;;10.97;100.00;96785.72;5065006;28;20016;-78
2021/09/06 03:55:21;;;;;;;11.40;8.00;;;;;;;10.89;100.00;96782.97;5063221;28;20036;-78
2021/09/06 03:57:47;;;;;;;17.13;9.10;;;;;;;10.83;100.00;96783.56;5066445;28;20464;-78
2021/09/06 04:00:14;;;;;;;13.80;9.83;;;;;;;10.81;100.00;96782.88;5088226;28;20033;-78
2021/09/06 04:02:48;;;;;;;14.03;8.60;;;;;;;10.71;100.00;96782.13;5079333;28;20092;-77
2021/09/06 04:05:20;;;;;;;11.97;8.57;;;;;;;10.69;100.00;96781.41;5067200;28;20048;-78
2021/09/06 04:07:47;;;;;;;11.87;8.43;;;;;;;10.71;100.00;96784.75;5090437;28;20039;-78
2021/09/06 04:10:13;;;;;;;14.37;9.43;;;;;;;10.77;100.00;96786.78;5069543;28;20017;-78
2021/09/06 04:12:40;;;;;;;15.27;9.17;;;;;;;10.79;100.00;96782.19;5070672;28;20032;-78
2021/09/06 04:15:08;;;;;;;13.87;8.93;;;;;;;10.76;100.00;96787.75;5061142;28;20441;-78
2021/09/06 04:17:34;;;;;;;10.67;8.37;;;;;;;10.71;100.00;96788.19;5090647;28;20050;-78
2021/09/06 04:20:00;;;;;;;11.53;8.97;;;;;;;10.70;100.00;96788.34;5074183;28;20067;-79
2021/09/06 04:22:26;;;;;;;12.77;9.10;;;;;;;10.70;100.00;96793.63;5092799;28;20042;-79
2021/09/06 04:24:52;;;;;;;14.27;8.63;;;;;;;10.71;100.00;96790.00;5079280;28;20073;-78
2021/09/06 04:27:19;;;;;;;13.80;9.10;;;;;;;10.67;100.00;96804.44;5072033;28;20029;-77
2021/09/06 04:29:45;;;;;;;10.67;7.77;;;;;;;10.69;100.00;96807.72;5086517;28;20028;-78
2021/09/06 04:32:12;;;;;;;12.17;8.83;;;;;;;10.76;100.00;96803.53;5072111;28;20036;-78
2021/09/06 04:34:38;;;;;;;11.57;7.53;;;;;;;10.82;100.00;96808.22;5075247;28;20035;-77
2021/09/06 04:37:05;;;;;;;11.90;8.50;;;;;;;10.84;100.00;96806.28;5073645;28;20048;-78
2021/09/06 04:39:33;;;;;;;13.30;7.93;;;;;;;10.85;100.00;96813.19;5097053;28;20083;-78
2021/09/06 04:41:59;;;;;;;12.73;8.67;;;;;;;10.85;100.00;96814.00;5072813;28;20100;-78
2021/09/06 04:44:25;;;;;;;12.50;8.13;;;;;;;10.91;100.00;96815.25;5072522;28;20036;-78
2021/09/06 04:46:51;;;;;;;14.03;8.73;;;;;;;10.92;100.00;96818.69;5072064;28;20024;-78
2021/09/06 04:49:18;;;;;;;13.63;9.00;;;;;;;10.90;100.00;96818.84;5072963;28;19996;-78
2021/09/06 04:51:44;;;;;;;11.63;8.30;;;;;;;10.93;100.00;96820.34;5074249;28;20060;-78
2021/09/06 04:54:15;;;;;;;13.60;8.87;;;;;;;10.98;100.00;96812.84;5075500;28;20054;-78
2021/09/06 04:56:41;;;;;;;12.47;8.57;;;;;;;11.04;99.95;96818.34;5070473;28;20033;-79
2021/09/06 04:59:07;;;;;;;11.07;8.67;;;;;;;11.07;99.68;96825.13;5088666;28;20025;-78
2021/09/06 05:01:35;;;;;;;11.00;7.80;;;;;;;11.08;99.06;96827.59;5092896;28;20040;-78
2021/09/06 05:04:01;;;;;;;11.20;7.70;;;;;;;11.13;98.92;96827.16;5064701;28;20032;-79
2021/09/06 05:06:27;;;;;;;11.73;8.23;;;;;;;11.17;98.97;96833.78;5077721;28;20028;-79
2021/09/06 05:08:53;;;;;;;10.30;7.67;;;;;;;11.21;98.46;96829.88;5063161;28;20029;-78
2021/09/06 05:11:20;;;;;;;11.83;8.63;;;;;;;11.30;98.17;96833.41;5062462;28;20036;-78
2021/09/06 05:13:45;;;;;;;11.00;8.07;;;;;;;11.32;98.05;96834.94;5068630;28;20497;-79
2021/09/06 05:16:13;;;;;;;11.93;8.27;;;;;;;11.40;97.33;96830.72;5062720;28;20033;-79
2021/09/06 05:18:39;;;;;;;11.33;8.10;;;;;;;11.36;97.66;96832.81;5071023;28;20381;-79
2021/09/06 05:21:05;;;;;;;10.73;8.20;;;;;;;11.52;96.86;96835.63;5073051;28;20024;-79
2021/09/06 05:23:30;;;;;;;13.77;8.87;;;;;;;11.67;96.07;96835.06;5057510;28;20171;-79
2021/09/06 05:25:57;;;;;;;13.80;8.80;;;;;;;11.91;94.42;96832.69;5078837;28;20032;-80
2021/09/06 05:28:24;;;;;;;11.97;8.83;;;;;;;11.90;94.42;96835.47;5077864;28;20019;-79
2021/09/06 05:30:50;;;;;;;12.10;8.53;;;;;;;12.27;93.68;96833.47;5061539;28;20032;-79
2021/09/06 05:33:16;;;;;;;13.87;8.97;;;;;;;12.27;92.42;96838.72;5066043;28;20100;-79
2021/09/06 05:35:46;;;;;;;13.97;9.83;;;;;;;12.34;91.27;96838.94;5064377;28;20078;-79
2021/09/06 05:38:13;;;;;;;11.47;7.80;;;;;;;12.85;89.35;96844.31;5081863;28;20060;-80
2021/09/06 05:40:59;;;;;;;13.20;8.33;;;;;;;12.77;90.39;96844.28;5071815;28;20027;-79
2021/09/06 05:43:25;;;;;;;12.30;8.23;;;;;;;13.38;87.45;96840.53;5080493;28;20075;-79
2021/09/06 05:45:51;;;;;;;13.33;8.40;;;;;;;13.45;86.66;96844.22;5059682;28;20474;-78
2021/09/06 05:48:18;;;;;;;11.93;7.63;;;;;;;13.51;84.79;96845.38;5069457;28;20120;-79
2021/09/06 05:50:44;;;;;;;11.20;7.90;;;;;;;13.92;83.09;96843.59;5072682;28;20051;-80
2021/09/06 05:53:29;;;;;;;14.03;8.47;;;;;;;13.83;83.34;96853.34;5070680;28;20161;-80
2021/09/06 05:55:55;;;;;;;13.07;8.30;;;;;;;13.51;85.49;96848.00;5053965;28;20021;-79
2021/09/06 05:58:22;;;;;;;13.60;8.83;;;;;;;13.33;85.54;96848.97;5059928;28;20056;-79
2021/09/06 06:00:47;;;;;;;11.80;8.67;;;;;;;13.70;84.28;96855.63;5079611;28;20490;-79
2021/09/06 06:03:13;;;;;;;15.33;8.73;;;;;;;13.68;82.88;96857.59;5064107;28;20029;-79
2021/09/06 06:05:42;;;;;;;12.70;8.30;;;;;;;14.34;81.26;96855.81;5078284;28;20025;-79
2021/09/06 06:08:08;;;;;;;13.17;8.83;;;;;;;14.85;78.85;96856.38;5075078;28;20032;-79
2021/09/06 06:10:34;;;;;;;15.27;10.63;;;;;;;15.09;78.09;96851.00;5072775;28;20085;-80
2021/09/06 06:13:00;;;;;;;13.90;8.77;;;;;;;15.16;75.39;96859.09;5073879;28;20486;-79
2021/09/06 06:15:27;;;;;;;18.43;9.13;;;;;;;15.07;76.32;96868.88;5076857;28;20024;-79
2021/09/06 06:17:53;;;;;;;11.43;8.27;;;;;;;14.99;77.11;96858.34;5070055;28;20093;-80
2021/09/06 06:20:19;;;;;;;13.70;8.57;;;;;;;15.57;74.04;96862.34;5072903;28;20086;-80
2021/09/06 06:22:54;;;;;;;12.73;8.90;;;;;;;15.88;73.02;96865.97;5080928;28;20025;-80
2021/09/06 06:25:34;;;;;;;12.63;8.50;;;;;;;16.55;70.74;96860.75;5057468;28;20130;-80
2021/09/06 06:28:14;;;;;;;14.27;8.97;;;;;;;16.45;69.95;96868.16;5072275;28;20040;-80
2021/09/06 06:30:39;;;;;;;12.87;8.60;;;;;;;16.72;69.77;96872.84;5071990;28;20024;-80
2021/09/06 06:33:06;;;;;;;12.17;9.40;;;;;;;16.70;69.04;96866.94;5058698;28;20027;-80
2021/09/06 06:35:40;;;;;;;14.07;8.07;;;;;;;17.14;69.14;96868.78;5076356;28;20036;-80
2021/09/06 06:38:06;;;;;;;10.25;7.97;;;;;;;17.62;65.64;96869.13;5070753;28;20040;-80
2021/09/06 06:40:36;;;;;;;12.80;8.77;;;;;;;18.16;65.93;96873.19;5053562;28;20044;-80
2021/09/06 06:43:04;;;;;;;12.30;8.23;;;;;;;18.17;63.22;96871.34;5057025;28;20025;-80
2021/09/06 06:45:30;;;;;;;12.15;8.90;;;;;;;18.63;63.17;96868.22;5071523;28;20038;-80
2021/09/06 06:47:57;;;;;;;11.48;8.20;;;;;;;18.05;63.13;96869.19;5072693;28;20086;-80
2021/09/06 06:50:24;;;;;;;11.45;7.50;;;;;;;18.92;61.78;96860.06;5051844;28;20028;-78
2021/09/06 06:52:54;;;;;;;11.65;7.85;;;;;;;19.16;61.63;96864.06;5048365;28;20037;-79
2021/09/06 06:55:21;;;;;;;11.65;7.53;;;;;;;19.20;59.56;96867.97;5051839;28;20032;-79
2021/09/06 06:57:48;;;;;;;10.68;8.15;;;;;;;19.17;59.09;96859.56;5071360;28;20029;-79
2021/09/06 07:00:14;;;;;;;12.48;8.18;;;;;;;19.44;58.10;96861.31;5071392;28;20098;-79
2021/09/06 07:02:43;;;;;;;12.75;8.15;;;;;;;19.99;56.93;96856.78;5054508;28;20024;-79
2021/09/06 07:05:09;;;;;;;11.40;7.93;;;;;;;19.01;58.71;96868.69;5070811;28;20028;-79
2021/09/06 07:07:39;;;;;;;10.50;7.93;;;;;;;20.11;57.20;96864.16;5081655;28;20032;-79
2021/09/06 07:10:07;;;;;;;11.25;7.95;;;;;;;20.84;55.02;96865.00;5071116;28;20032;-79
2021/09/06 07:12:33;;;;;;;9.80;7.60;;;;;;;21.64;52.74;96857.56;5068662;28;20024;-79
2021/09/06 07:14:59;;;;;;;9.85;7.00;;;;;;;21.85;52.03;96866.28;5049501;28;20032;-79
2021/09/06 07:17:26;;;;;;;12.75;7.97;;;;;;;21.98;50.79;96876.13;5076783;28;20028;-79
2021/09/06 07:19:51;;;;;;;10.75;8.38;;;;;;;21.44;52.79;96874.75;5069959;28;20036;-79
2021/09/06 07:22:17;;;;;;;11.82;6.90;;;;;;;22.60;50.33;96877.09;5076385;28;20052;-79
2021/09/06 07:24:43;;;;;;;12.57;7.65;;;;;;;21.75;52.89;96884.69;5053467;28;20036;-79
2021/09/06 07:27:09;;;;;;;10.27;7.57;;;;;;;23.38;49.00;96878.44;5065177;28;20032;-79
2021/09/06 07:29:35;;;;;;;12.25;7.55;;;;;;;22.08;51.36;96884.50;5048755;28;20079;-79
2021/09/06 07:32:01;;;;;;;9.68;7.85;;;;;;;22.05;52.53;96880.38;5068801;28;20016;-79
2021/09/06 07:34:30;;;;;;;12.45;7.70;;;;;;;22.44;52.20;96883.84;5052932;28;20547;-79
2021/09/06 07:36:56;;;;;;;10.05;8.05;;;;;;;22.45;52.85;96884.69;5069442;28;20039;-79
2021/09/06 07:39:23;;;;;;;11.68;8.00;;;;;;;22.26;53.12;96889.13;5070825;28;20516;-79
2021/09/06 07:41:49;;;;;;;11.70;7.90;;;;;;;23.27;50.46;96882.66;5074176;28;20079;-79
2021/09/06 07:44:15;;;;;;;11.32;8.07;;;;;;;22.81;52.13;96884.78;5074467;28;20398;-79
2021/09/06 07:46:41;;;;;;;10.45;7.95;;;;;;;23.12;51.33;96888.41;5071267;28;20048;-79
2021/09/06 07:49:09;;;;;;;11.00;8.32;;;;;;;22.91;50.86;96883.44;5077348;28;20060;-79
2021/09/06 07:51:35;;;;;;;11.10;8.43;;;;;;;23.11;50.11;96889.47;5069898;28;20113;-79
2021/09/06 07:54:02;;;;;;;13.43;7.82;;;;;;;23.78;48.56;96883.34;5074332;28;20084;-79
2021/09/06 07:56:28;;;;;;;13.63;8.05;;;;;;;23.97;48.37;96883.03;5073118;28;20478;-79
2021/09/06 07:58:54;;;;;;;13.43;7.47;;;;;;;24.28;47.44;96894.63;5073260;28;20032;-79
2021/09/06 08:01:21;;;;;;;9.65;7.13;;;;;;;25.12;45.67;96884.56;5053203;28;20094;-80
2021/09/06 08:03:47;;;;;;;12.00;7.35;;;;;;;25.94;43.93;96878.16;5051965;28;20120;-79
2021/09/06 08:06:13;;;;;;;8.95;7.53;;;;;;;24.17;47.36;96885.44;5083490;28;20052;-79
2021/09/06 08:08:41;;;;;;;10.18;7.32;;;;;;;24.19;47.71;96891.41;5072202;28;20132;-79
2021/09/06 08:11:09;;;;;;;10.98;7.50;;;;;;;25.01;46.46;96877.25;5064262;28;20021;-79
2021/09/06 08:13:39;;;;;;;8.73;7.22;;;;;;;25.47;44.06;96883.66;5073793;28;20131;-79
2021/09/06 08:16:05;;;;;;;10.70;7.45;;;;;;;25.92;44.38;96888.34;5052311;28;20127;-79
2021/09/06 08:18:32;;;;;;;10.45;6.78;;;;;;;27.24;41.43;96884.34;5071901;28;20024;-79
2021/09/06 08:20:58;;;;;;;8.73;6.65;;;;;;;27.11;41.50;96889.25;5065322;28;20175;-79
2021/09/06 08:23:24;;;;;;;8.57;6.75;;;;;;;26.63;42.90;96888.00;5074806;28;20058;-79
2021/09/06 08:25:57;;;;;;;9.85;6.75;;;;;;;26.26;43.19;96901.91;5072207;28;20029;-79
2021/09/06 08:28:23;;;;;;;10.48;7.47;;;;;;;24.49;47.60;96911.28;5088017;28;20051;-80
2021/09/06 08:30:49;;;;;;;10.05;7.90;;;;;;;25.64;45.58;96903.41;5074044;28;20025;-80
2021/09/06 08:33:15;;;;;;;9.25;6.80;;;;;;;26.44;44.07;96907.06;5072329;28;20032;-80
2021/09/06 08:35:41;;;;;;;9.88;7.40;;;;;;;26.36;42.80;96907.50;5052898;28;20033;-80
2021/09/06 08:38:08;;;;;;;9.90;7.03;;;;;;;27.07;42.39;96909.72;5049604;28;20067;-79
2021/09/06 08:40:34;;;;;;;9.90;6.22;;;;;;;27.07;41.97;96909.72;5071591;28;20444;-80
2021/09/06 08:43:04;;;;;;;9.23;6.68;;;;;;;28.60;38.88;96908.84;5072213;28;20570;-79
2021/09/06 08:45:32;;;;;;;8.48;5.88;;;;;;;28.31;38.90;96919.13;5069871;28;20405;-80
2021/09/06 08:47:58;;;;;;;11.15;6.63;;;;;;;27.18;41.51;96928.53;5073986;28;20444;-80
2021/09/06 08:50:24;;;;;;;11.55;7.63;;;;;;;29.02;38.04;96918.97;5083680;28;20016;-79
2021/09/06 08:52:50;;;;;;;11.10;6.68;;;;;;;27.43;40.06;96927.25;5067911;28;20033;-79
2021/09/06 08:55:16;;;;;;;8.55;6.57;;;;;;;27.50;40.17;96926.03;5052111;28;20055;-79
2021/09/06 08:57:46;;;;;;;10.10;6.97;;;;;;;27.52;40.57;96930.34;5046853;28;20056;-79
2021/09/06 09:00:13;;;;;;;8.93;6.22;;;;;;;28.01;40.12;96925.03;5056412;28;20478;-79
2021/09/06 09:03:08;;;;;;;9.73;7.13;;;;;;;27.59;40.97;96926.38;5063543;28;20060;-79
2021/09/06 09:06:03;;;;;;;9.18;6.75;;;;;;;28.81;35.60;96924.19;5072809;28;20085;-79
2021/09/06 09:08:51;;;;;;;8.30;6.28;;;;;;;28.62;36.13;96915.66;5039275;28;20040;-79
2021/09/06 09:11:34;;;;;;;9.20;5.95;;;;;;;29.59;34.48;96919.06;5070349;28;20021;-79
2021/09/06 09:14:21;;;;;;;9.15;6.40;;;;;;;28.31;33.84;96925.34;5057825;28;20478;-80
2021/09/06 09:17:15;;;;;;;7.70;6.18;;;;;;;28.61;36.42;96929.44;5072926;28;20032;-79
2021/09/06 09:20:19;;;;;;;8.13;6.15;;;;;;;29.01;34.52;96929.00;5031551;28;20041;-79
2021/09/06 09:23:03;;;;;;;8.27;6.00;;;;;;;28.32;34.02;96921.56;5012724;28;20106;-79
2021/09/06 09:26:02;;;;;;;8.15;6.38;;;;;;;28.79;34.58;96936.34;5031112;28;20383;-79
2021/09/06 09:28:44;;;;;;;8.95;6.85;;;;;;;29.97;33.13;96921.63;5054993;28;20036;-79
2021/09/06 09:31:29;;;;;;;438.92;349.08;;;;;;;28.85;35.33;96932.63;5071587;28;20458;-80
2021/09/06 09:34:30;;;;;;;94.25;66.53;;;;;;;30.86;32.99;96925.88;5048160;28;20044;-80
2021/09/06 09:37:04;;;;;;;13.88;8.88;;;;;;;29.17;33.66;96931.78;5064910;28;20119;-80
2021/09/06 09:39:33;;;;;;;11.68;8.85;;;;;;;30.32;32.53;96923.66;5070337;28;20119;-80
2021/09/06 09:42:09;;;;;;;8.48;6.78;;;;;;;30.81;31.01;96919.63;5067298;28;20106;-81
2021/09/06 09:44:49;;;;;;;9.57;7.15;;;;;;;31.20;29.75;96931.56;5069707;28;20039;-78
2021/09/06 09:47:30;;;;;;;9.52;6.68;;;;;;;30.80;31.62;96926.16;5077328;28;20202;-78
2021/09/06 09:49:59;;;;;;;9.57;6.18;;;;;;;29.99;32.14;96927.63;5075995;28;20063;-79
2021/09/06 09:52:26;;;;;;;7.93;6.07;;;;;;;30.76;31.40;96924.00;5058895;28;20485;-80
2021/09/06 09:54:54;;;;;;;7.57;5.90;;;;;;;30.37;31.75;96925.56;5072550;28;20040;-78
2021/09/06 09:57:25;;;;;;;8.68;6.43;;;;;;;31.69;30.11;96925.47;5072169;28;20089;-79
2021/09/06 09:59:52;;;;;;;9.82;6.30;;;;;;;31.17;31.45;96923.13;5069362;28;20043;-80
2021/09/06 10:02:29;;;;;;;8.30;6.40;;;;;;;28.75;35.30;96927.94;5072845;28;20029;-79
2021/09/06 10:05:06;;;;;;;9.15;6.50;;;;;;;29.79;34.31;96928.34;5083886;28;20028;-80
2021/09/06 10:07:40;;;;;;;7.72;6.20;;;;;;;29.89;33.89;96922.16;5079314;28;20604;-80
2021/09/06 10:10:24;;;;;;;8.75;6.45;;;;;;;27.94;36.79;96919.81;5061216;28;20477;-80
2021/09/06 10:13:13;;;;;;;11.02;7.45;;;;;;;28.23;37.06;96925.78;5050629;28;20037;-80
2021/09/06 10:15:41;;;;;;;9.27;5.88;;;;;;;28.33;36.29;96917.78;5061904;28;20033;-79
2021/09/06 10:18:19;;;;;;;10.68;6.65;;;;;;;28.70;34.81;96918.94;5073752;28;20020;-80
2021/09/06 10:20:52;;;;;;;9.15;6.22;;;;;;;28.13;36.06;96918.38;5075636;28;20033;-80
2021/09/06 10:23:25;;;;;;;9.18;6.50;;;;;;;29.31;33.15;96909.41;5057844;28;20040;-80
2021/09/06 10:25:55;;;;;;;8.15;5.97;;;;;;;29.18;35.07;96901.75;5063136;28;20062;-80
2021/09/06 10:28:31;;;;;;;9.25;6.53;;;;;;;29.58;35.12;96895.72;5034115;28;20033;-80
2021/09/06 10:30:56;;;;;;;8.95;5.93;;;;;;;28.96;35.62;96903.72;5065055;28;20086;-78
2021/09/06 10:33:35;;;;;;;9.07;6.15;;;;;;;27.69;35.52;96915.69;5073105;28;20102;-78
2021/09/06 10:36:08;;;;;;;8.15;6.25;;;;;;;27.29;36.08;96910.59;5069035;28;20028;-78
2021/09/06 10:38:40;;;;;;;8.30;6.15;;;;;;;26.89;36.28;96911.59;5071804;28;20032;-79
2021/09/06 10:41:13;;;;;;;7.47;5.55;;;;;;;27.39;36.98;96904.50;5069267;28;20032;-80
2021/09/06 10:43:46;;;;;;;;;;;;;;;26.95;35.34;96905.22;5038457;28;20075;-80
2021/09/06 10:46:13;;;;;;;8.13;5.70;;;;;;;27.18;36.67;96904.25;5063537;28;19916;-79
2021/09/06 10:48:42;;;;;;;8.43;5.95;;;;;;;28.64;34.21;96899.16;5076402;28;20113;-80
2021/09/06 10:51:09;;;;;;;7.95;5.75;;;;;;;28.62;33.42;96893.19;5072143;28;20549;-80
2021/09/06 10:53:39;;;;;;;7.55;5.88;;;;;;;27.90;35.20;96892.47;5068732;28;20493;-80
2021/09/06 10:56:07;;;;;;;8.98;6.05;;;;;;;26.73;37.41;96893.56;5053455;28;20032;-78
2021/09/06 10:58:35;;;;;;;8.00;5.70;;;;;;;27.76;36.17;96884.97;5060109;28;20089;-79
2021/09/06 11:01:04;;;;;;;9.23;6.53;;;;;;;26.46;36.95;96896.03;5063672;28;20048;-80
2021/09/06 11:03:35;;;;;;;9.48;5.97;;;;;;;26.72;36.46;96891.91;5062580;28;20032;-79
2021/09/06 11:06:03;;;;;;;7.57;5.38;;;;;;;25.87;39.83;96893.66;5071262;28;20111;-80
2021/09/06 11:08:37;;;;;;;7.32;5.63;;;;;;;26.04;37.76;96891.00;5069262;28;20504;-79
2021/09/06 11:11:06;;;;;;;8.57;6.20;;;;;;;26.14;36.98;96887.69;5069551;28;20029;-80
2021/09/06 11:13:35;;;;;;;8.40;6.07;;;;;;;27.07;37.40;96885.44;5048288;28;20056;-80
2021/09/06 11:16:05;;;;;;;7.55;5.53;;;;;;;26.98;36.62;96890.41;5073639;28;20086;-80
2021/09/06 11:18:34;;;;;;;7.85;5.82;;;;;;;26.84;35.61;96876.44;5059271;28;20035;-80
2021/09/06 11:21:01;;;;;;;7.80;5.70;;;;;;;27.60;35.72;96886.66;5059718;28;20032;-79
2021/09/06 11:23:35;;;;;;;10.13;5.75;;;;;;;28.40;34.06;96879.72;5075004;28;20127;-81
2021/09/06 11:26:04;;;;;;;9.30;6.53;;;;;;;28.75;34.69;96887.34;5069947;28;20111;-80
2021/09/06 11:28:32;;;;;;;8.30;6.50;;;;;;;28.68;33.92;96875.91;5068995;28;20032;-81
2021/09/06 11:30:58;;;;;;;8.40;6.13;;;;;;;28.25;33.06;96887.69;5051798;28;20033;-80
2021/09/06 11:33:26;;;;;;;7.07;5.97;;;;;;;27.71;34.18;96873.03;5062916;28;20393;-80
2021/09/06 11:35:52;;;;;;;9.88;6.07;;;;;;;27.31;34.70;96881.47;5069590;28;20028;-79